sensor_id;sensor_type;location;lat;lon;timestamp;temperature;humidity
33077;DHT22;38790;51.964;5.924;2022-10-31T00:00:22;12.80;99.90
33077;DHT22;38790;51.964;5.924;2022-10-31T00:02:48;12.80;99.90
33077;DHT22;38790;51.964;5.924;2022-10-31T00:05:14;12.70;99.90
33077;DHT22;38790;51.964;5.924;2022-10-31T00:07:40;12.70;99.90
33077;DHT22;38790;51.964;5.924;2022-10-31T00:10:07;12.60;99.90
33077;DHT22;38790;51.964;5.924;2022-10-31T00:12:33;12.60;99.90
33077;DHT22;38790;51.964;5.924;2022-10-31T00:15:00;12.60;99.90
33077;DHT22;38790;51.964;5.924;2022-10-31T00:17:26;12.50;99.90
33077;DHT22;38790;51.964;5.924;2022-10-31T00:19:52;12.50;99.90
33077;DHT22;38790;51.964;5.924;2022-10-31T00:22:18;12.50;99.90
33077;DHT22;38790;51.964;5.924;2022-10-31T00:24:44;12.50;99.90
33077;DHT22;38790;51.964;5.924;2022-10-31T00:27:10;12.50;99.90
33077;DHT22;38790;51.964;5.924;2022-10-31T00:29:36;12.40;99.90
33077;DHT22;38790;51.964;5.924;2022-10-31T00:32:03;12.40;99.90
33077;DHT22;38790;51.964;5.924;2022-10-31T00:34:29;12.40;99.90
33077;DHT22;38790;51.964;5.924;2022-10-31T00:36:55;12.30;99.90
33077;DHT22;38790;51.964;5.924;2022-10-31T00:39:21;12.30;99.90
33077;DHT22;38790;51.964;5.924;2022-10-31T00:41:47;12.30;99.90
33077;DHT22;38790;51.964;5.924;2022-10-31T00:44:13;12.20;99.90
33077;DHT22;38790;51.964;5.924;2022-10-31T00:46:39;12.10;99.90
33077;DHT22;38790;51.964;5.924;2022-10-31T00:49:05;12.00;99.90
33077;DHT22;38790;51.964;5.924;2022-10-31T00:51:31;12.00;99.90
33077;DHT22;38790;51.964;5.924;2022-10-31T00:53:57;11.90;99.90
33077;DHT22;38790;51.964;5.924;2022-10-31T00:56:23;11.90;99.90
33077;DHT22;38790;51.964;5.924;2022-10-31T00:58:49;11.90;99.90
33077;DHT22;38790;51.964;5.924;2022-10-31T01:01:15;11.90;99.90
33077;DHT22;38790;51.964;5.924;2022-10-31T01:03:42;11.90;99.90
33077;DHT22;38790;51.964;5.924;2022-10-31T01:06:11;11.80;99.90
33077;DHT22;38790;51.964;5.924;2022-10-31T01:08:38;11.80;99.90
33077;DHT22;38790;51.964;5.924;2022-10-31T01:11:17;11.70;99.90
33077;DHT22;38790;51.964;5.924;2022-10-31T01:13:43;11.70;99.90
33077;DHT22;38790;51.964;5.924;2022-10-31T01:16:13;11.70;99.90
33077;DHT22;38790;51.964;5.924;2022-10-31T01:18:39;11.70;99.90
33077;DHT22;38790;51.964;5.924;2022-10-31T01:21:25;11.60;99.90
33077;DHT22;38790;51.964;5.924;2022-10-31T01:23:53;11.60;99.90
33077;DHT22;38790;51.964;5.924;2022-10-31T01:26:25;11.60;99.90
33077;DHT22;38790;51.964;5.924;2022-10-31T01:28:58;11.50;99.90
33077;DHT22;38790;51.964;5.924;2022-10-31T01:31:27;11.50;99.90
33077;DHT22;38790;51.964;5.924;2022-10-31T01:33:53;11.60;99.90
33077;DHT22;38790;51.964;5.924;2022-10-31T01:38:47;11.60;99.90
33077;DHT22;38790;51.964;5.924;2022-10-31T01:41:16;11.50;99.90
33077;DHT22;38790;51.964;5.924;2022-10-31T01:46:29;11.40;99.90
33077;DHT22;38790;51.964;5.924;2022-10-31T01:48:58;11.30;99.90
33077;DHT22;38790;51.964;5.924;2022-10-31T01:51:29;11.30;99.90
33077;DHT22;38790;51.964;5.924;2022-10-31T01:54:00;11.30;99.90
33077;DHT22;38790;51.964;5.924;2022-10-31T01:56:27;11.30;99.90
33077;DHT22;38790;51.964;5.924;2022-10-31T01:58:54;11.30;99.90
33077;DHT22;38790;51.964;5.924;2022-10-31T02:01:22;11.30;99.90
33077;DHT22;38790;51.964;5.924;2022-10-31T02:03:49;11.30;99.90
33077;DHT22;38790;51.964;5.924;2022-10-31T02:06:43;11.40;99.90
33077;DHT22;38790;51.964;5.924;2022-10-31T02:09:12;11.40;99.90
33077;DHT22;38790;51.964;5.924;2022-10-31T02:11:39;11.40;99.90
33077;DHT22;38790;51.964;5.924;2022-10-31T02:14:06;11.50;99.90
33077;DHT22;38790;51.964;5.924;2022-10-31T02:16:32;11.50;99.90
33077;DHT22;38790;51.964;5.924;2022-10-31T02:18:58;11.50;99.90
33077;DHT22;38790;51.964;5.924;2022-10-31T02:21:59;11.50;99.90
33077;DHT22;38790;51.964;5.924;2022-10-31T02:24:35;11.40;99.90
33077;DHT22;38790;51.964;5.924;2022-10-31T02:30:07;11.20;99.90
33077;DHT22;38790;51.964;5.924;2022-10-31T02:32:41;11.20;99.90
33077;DHT22;38790;51.964;5.924;2022-10-31T02:40:52;11.10;99.90
33077;DHT22;38790;51.964;5.924;2022-10-31T02:43:44;11.10;99.90
33077;DHT22;38790;51.964;5.924;2022-10-31T02:46:21;11.10;99.90
33077;DHT22;38790;51.964;5.924;2022-10-31T02:48:53;11.00;99.90
33077;DHT22;38790;51.964;5.924;2022-10-31T02:51:20;11.00;99.90
33077;DHT22;38790;51.964;5.924;2022-10-31T02:53:46;10.90;99.90
33077;DHT22;38790;51.964;5.924;2022-10-31T02:56:19;10.80;99.90
33077;DHT22;38790;51.964;5.924;2022-10-31T02:58:50;10.80;99.90
33077;DHT22;38790;51.964;5.924;2022-10-31T03:09:24;10.80;99.90
33077;DHT22;38790;51.964;5.924;2022-10-31T03:12:00;10.70;99.90
33077;DHT22;38790;51.964;5.924;2022-10-31T03:17:09;10.70;99.90
33077;DHT22;38790;51.964;5.924;2022-10-31T03:19:43;10.60;99.90
33077;DHT22;38790;51.964;5.924;2022-10-31T03:22:16;10.60;99.90
33077;DHT22;38790;51.964;5.924;2022-10-31T03:24:43;10.50;99.90
33077;DHT22;38790;51.964;5.924;2022-10-31T03:27:13;10.40;99.90
33077;DHT22;38790;51.964;5.924;2022-10-31T03:29:42;10.40;99.90
33077;DHT22;38790;51.964;5.924;2022-10-31T03:32:39;10.40;99.90
33077;DHT22;38790;51.964;5.924;2022-10-31T03:35:08;10.40;99.90
33077;DHT22;38790;51.964;5.924;2022-10-31T03:37:37;10.40;99.90
33077;DHT22;38790;51.964;5.924;2022-10-31T03:40:07;10.40;99.90
33077;DHT22;38790;51.964;5.924;2022-10-31T03:42:40;10.30;99.90
33077;DHT22;38790;51.964;5.924;2022-10-31T03:45:12;10.30;99.90
33077;DHT22;38790;51.964;5.924;2022-10-31T03:47:40;10.30;99.90
33077;DHT22;38790;51.964;5.924;2022-10-31T03:50:09;10.20;99.90
33077;DHT22;38790;51.964;5.924;2022-10-31T03:58:38;10.10;99.90
33077;DHT22;38790;51.964;5.924;2022-10-31T04:01:09;10.10;99.90
33077;DHT22;38790;51.964;5.924;2022-10-31T04:03:38;10.00;99.90
33077;DHT22;38790;51.964;5.924;2022-10-31T04:06:09;10.00;99.90
33077;DHT22;38790;51.964;5.924;2022-10-31T04:08:50;10.00;99.90
33077;DHT22;38790;51.964;5.924;2022-10-31T04:11:19;10.00;99.90
33077;DHT22;38790;51.964;5.924;2022-10-31T04:13:46;10.00;99.90
33077;DHT22;38790;51.964;5.924;2022-10-31T04:16:14;9.90;99.90
33077;DHT22;38790;51.964;5.924;2022-10-31T04:18:41;9.90;99.90
33077;DHT22;38790;51.964;5.924;2022-10-31T04:21:07;9.80;99.90
33077;DHT22;38790;51.964;5.924;2022-10-31T04:23:35;9.80;99.90
33077;DHT22;38790;51.964;5.924;2022-10-31T04:26:02;9.80;99.90
33077;DHT22;38790;51.964;5.924;2022-10-31T04:28:28;9.80;99.90
33077;DHT22;38790;51.964;5.924;2022-10-31T04:30:54;9.70;99.90
33077;DHT22;38790;51.964;5.924;2022-10-31T04:33:20;9.70;99.90
33077;DHT22;38790;51.964;5.924;2022-10-31T04:35:47;9.80;99.90
33077;DHT22;38790;51.964;5.924;2022-10-31T04:38:13;9.80;99.90
33077;DHT22;38790;51.964;5.924;2022-10-31T04:40:39;9.80;99.90
33077;DHT22;38790;51.964;5.924;2022-10-31T04:43:05;9.80;99.90
33077;DHT22;38790;51.964;5.924;2022-10-31T04:45:31;9.80;99.90
33077;DHT22;38790;51.964;5.924;2022-10-31T04:47:57;9.80;99.90
33077;DHT22;38790;51.964;5.924;2022-10-31T04:50:23;9.80;99.90
33077;DHT22;38790;51.964;5.924;2022-10-31T04:52:49;9.80;99.90
33077;DHT22;38790;51.964;5.924;2022-10-31T04:55:15;9.80;99.90
33077;DHT22;38790;51.964;5.924;2022-10-31T04:57:47;9.70;99.90
33077;DHT22;38790;51.964;5.924;2022-10-31T05:00:15;9.70;99.90
33077;DHT22;38790;51.964;5.924;2022-10-31T05:02:48;9.60;99.90
33077;DHT22;38790;51.964;5.924;2022-10-31T05:05:17;9.50;99.90
33077;DHT22;38790;51.964;5.924;2022-10-31T05:07:44;9.50;99.90
33077;DHT22;38790;51.964;5.924;2022-10-31T05:10:14;9.50;99.90
33077;DHT22;38790;51.964;5.924;2022-10-31T05:12:52;9.50;99.90
33077;DHT22;38790;51.964;5.924;2022-10-31T05:15:19;9.50;99.90
33077;DHT22;38790;51.964;5.924;2022-10-31T05:17:46;9.50;99.90
33077;DHT22;38790;51.964;5.924;2022-10-31T05:20:14;9.50;99.90
33077;DHT22;38790;51.964;5.924;2022-10-31T05:22:48;9.50;99.90
33077;DHT22;38790;51.964;5.924;2022-10-31T05:25:15;9.60;99.90
33077;DHT22;38790;51.964;5.924;2022-10-31T05:27:44;9.70;99.90
33077;DHT22;38790;51.964;5.924;2022-10-31T05:30:12;9.70;99.90
33077;DHT22;38790;51.964;5.924;2022-10-31T05:32:43;9.80;99.90
33077;DHT22;38790;51.964;5.924;2022-10-31T05:35:13;9.80;99.90
33077;DHT22;38790;51.964;5.924;2022-10-31T05:37:40;9.80;99.90
33077;DHT22;38790;51.964;5.924;2022-10-31T05:40:08;9.90;99.90
33077;DHT22;38790;51.964;5.924;2022-10-31T05:42:35;9.90;99.90
33077;DHT22;38790;51.964;5.924;2022-10-31T05:45:01;10.00;99.90
33077;DHT22;38790;51.964;5.924;2022-10-31T05:47:27;10.00;99.90
33077;DHT22;38790;51.964;5.924;2022-10-31T05:49:53;10.00;99.90
33077;DHT22;38790;51.964;5.924;2022-10-31T05:52:20;10.00;99.90
33077;DHT22;38790;51.964;5.924;2022-10-31T05:54:46;10.00;99.90
33077;DHT22;38790;51.964;5.924;2022-10-31T05:57:12;9.90;99.90
33077;DHT22;38790;51.964;5.924;2022-10-31T05:59:38;9.90;99.90
33077;DHT22;38790;51.964;5.924;2022-10-31T06:02:04;9.90;99.90
33077;DHT22;38790;51.964;5.924;2022-10-31T06:04:30;9.90;99.90
33077;DHT22;38790;51.964;5.924;2022-10-31T06:06:56;9.90;99.90
33077;DHT22;38790;51.964;5.924;2022-10-31T06:09:23;9.90;99.90
33077;DHT22;38790;51.964;5.924;2022-10-31T06:11:49;9.90;99.90
33077;DHT22;38790;51.964;5.924;2022-10-31T06:14:15;9.80;99.90
33077;DHT22;38790;51.964;5.924;2022-10-31T06:16:41;9.80;99.90
33077;DHT22;38790;51.964;5.924;2022-10-31T06:19:07;9.80;99.90
33077;DHT22;38790;51.964;5.924;2022-10-31T06:21:33;9.70;99.90
33077;DHT22;38790;51.964;5.924;2022-10-31T06:23:59;9.70;99.90
33077;DHT22;38790;51.964;5.924;2022-10-31T06:26:25;9.70;99.90
33077;DHT22;38790;51.964;5.924;2022-10-31T06:28:51;9.70;99.90
33077;DHT22;38790;51.964;5.924;2022-10-31T06:31:18;9.70;99.90
33077;DHT22;38790;51.964;5.924;2022-10-31T06:33:44;9.70;99.90
33077;DHT22;38790;51.964;5.924;2022-10-31T06:36:10;9.70;99.90
33077;DHT22;38790;51.964;5.924;2022-10-31T06:38:36;9.80;99.90
33077;DHT22;38790;51.964;5.924;2022-10-31T06:41:03;9.90;99.90
33077;DHT22;38790;51.964;5.924;2022-10-31T06:43:30;9.90;99.90
33077;DHT22;38790;51.964;5.924;2022-10-31T06:45:56;10.00;99.90
33077;DHT22;38790;51.964;5.924;2022-10-31T06:48:22;9.90;99.90
33077;DHT22;38790;51.964;5.924;2022-10-31T06:50:49;9.90;99.90
33077;DHT22;38790;51.964;5.924;2022-10-31T06:53:15;9.90;99.90
33077;DHT22;38790;51.964;5.924;2022-10-31T06:55:42;9.90;99.90
33077;DHT22;38790;51.964;5.924;2022-10-31T06:58:10;9.90;99.90
33077;DHT22;38790;51.964;5.924;2022-10-31T07:00:36;9.90;99.90
33077;DHT22;38790;51.964;5.924;2022-10-31T07:03:09;10.00;99.90
33077;DHT22;38790;51.964;5.924;2022-10-31T07:05:35;10.00;99.90
33077;DHT22;38790;51.964;5.924;2022-10-31T07:08:05;10.00;99.90
33077;DHT22;38790;51.964;5.924;2022-10-31T07:10:33;9.90;99.90
33077;DHT22;38790;51.964;5.924;2022-10-31T07:13:03;9.90;99.90
33077;DHT22;38790;51.964;5.924;2022-10-31T07:15:33;9.90;99.90
33077;DHT22;38790;51.964;5.924;2022-10-31T07:18:00;9.90;99.90
33077;DHT22;38790;51.964;5.924;2022-10-31T07:20:30;10.00;99.90
33077;DHT22;38790;51.964;5.924;2022-10-31T07:22:57;10.00;99.90
33077;DHT22;38790;51.964;5.924;2022-10-31T07:25:23;10.00;99.90
33077;DHT22;38790;51.964;5.924;2022-10-31T07:27:50;10.00;99.90
33077;DHT22;38790;51.964;5.924;2022-10-31T07:30:16;10.10;99.90
33077;DHT22;38790;51.964;5.924;2022-10-31T07:32:47;10.10;99.90
33077;DHT22;38790;51.964;5.924;2022-10-31T07:35:18;10.20;99.90
33077;DHT22;38790;51.964;5.924;2022-10-31T07:37:45;10.20;99.90
33077;DHT22;38790;51.964;5.924;2022-10-31T07:40:11;10.40;99.90
33077;DHT22;38790;51.964;5.924;2022-10-31T07:42:42;10.50;99.90
33077;DHT22;38790;51.964;5.924;2022-10-31T07:45:11;10.60;99.90
33077;DHT22;38790;51.964;5.924;2022-10-31T07:47:51;10.70;99.90
33077;DHT22;38790;51.964;5.924;2022-10-31T07:50:38;10.80;99.90
33077;DHT22;38790;51.964;5.924;2022-10-31T07:53:08;10.90;99.90
33077;DHT22;38790;51.964;5.924;2022-10-31T07:55:35;10.90;99.90
33077;DHT22;38790;51.964;5.924;2022-10-31T07:58:10;11.00;99.90
33077;DHT22;38790;51.964;5.924;2022-10-31T08:00:37;11.10;99.90
33077;DHT22;38790;51.964;5.924;2022-10-31T08:03:06;11.20;99.90
33077;DHT22;38790;51.964;5.924;2022-10-31T08:05:34;11.40;99.90
33077;DHT22;38790;51.964;5.924;2022-10-31T08:08:00;11.40;99.90
33077;DHT22;38790;51.964;5.924;2022-10-31T08:10:27;11.50;99.90
33077;DHT22;38790;51.964;5.924;2022-10-31T08:13:05;11.50;99.90
33077;DHT22;38790;51.964;5.924;2022-10-31T08:15:31;11.40;99.90
33077;DHT22;38790;51.964;5.924;2022-10-31T08:17:59;11.40;99.90
33077;DHT22;38790;51.964;5.924;2022-10-31T08:20:26;11.40;99.90
33077;DHT22;38790;51.964;5.924;2022-10-31T08:22:54;11.50;99.90
33077;DHT22;38790;51.964;5.924;2022-10-31T08:25:20;11.50;99.90
33077;DHT22;38790;51.964;5.924;2022-10-31T08:27:54;11.60;99.90
33077;DHT22;38790;51.964;5.924;2022-10-31T08:30:21;11.60;99.90
33077;DHT22;38790;51.964;5.924;2022-10-31T08:35:29;11.80;99.90
33077;DHT22;38790;51.964;5.924;2022-10-31T08:37:56;11.80;99.90
33077;DHT22;38790;51.964;5.924;2022-10-31T08:40:23;11.90;99.90
33077;DHT22;38790;51.964;5.924;2022-10-31T08:43:10;12.10;99.90
33077;DHT22;38790;51.964;5.924;2022-10-31T08:45:36;12.30;99.90
33077;DHT22;38790;51.964;5.924;2022-10-31T08:48:06;12.40;99.90
33077;DHT22;38790;51.964;5.924;2022-10-31T08:50:34;12.60;99.90
33077;DHT22;38790;51.964;5.924;2022-10-31T08:53:09;12.70;99.90
33077;DHT22;38790;51.964;5.924;2022-10-31T08:55:36;12.70;99.90
33077;DHT22;38790;51.964;5.924;2022-10-31T08:58:05;12.90;99.90
33077;DHT22;38790;51.964;5.924;2022-10-31T09:00:33;13.00;99.90
33077;DHT22;38790;51.964;5.924;2022-10-31T09:03:01;13.10;99.90
33077;DHT22;38790;51.964;5.924;2022-10-31T09:05:27;13.20;99.90
33077;DHT22;38790;51.964;5.924;2022-10-31T09:07:58;13.20;99.90
33077;DHT22;38790;51.964;5.924;2022-10-31T09:10:24;13.30;99.90
33077;DHT22;38790;51.964;5.924;2022-10-31T09:12:56;13.30;99.90
33077;DHT22;38790;51.964;5.924;2022-10-31T09:15:22;13.40;99.90
33077;DHT22;38790;51.964;5.924;2022-10-31T09:17:49;13.40;99.90
33077;DHT22;38790;51.964;5.924;2022-10-31T09:20:15;13.60;99.90
33077;DHT22;38790;51.964;5.924;2022-10-31T09:22:41;13.80;99.90
33077;DHT22;38790;51.964;5.924;2022-10-31T09:25:08;14.00;99.90
33077;DHT22;38790;51.964;5.924;2022-10-31T09:27:34;14.20;99.90
33077;DHT22;38790;51.964;5.924;2022-10-31T09:30:00;14.30;99.90
33077;DHT22;38790;51.964;5.924;2022-10-31T09:32:26;14.20;99.90
33077;DHT22;38790;51.964;5.924;2022-10-31T09:34:52;14.10;99.90
33077;DHT22;38790;51.964;5.924;2022-10-31T09:37:18;14.10;99.90
33077;DHT22;38790;51.964;5.924;2022-10-31T09:39:44;14.10;99.90
33077;DHT22;38790;51.964;5.924;2022-10-31T09:45:38;14.40;99.90
33077;DHT22;38790;51.964;5.924;2022-10-31T09:48:13;14.50;99.90
33077;DHT22;38790;51.964;5.924;2022-10-31T09:50:45;14.60;99.90
33077;DHT22;38790;51.964;5.924;2022-10-31T09:53:21;14.80;99.90
33077;DHT22;38790;51.964;5.924;2022-10-31T09:55:49;14.80;99.90
33077;DHT22;38790;51.964;5.924;2022-10-31T09:58:20;14.80;99.90
33077;DHT22;38790;51.964;5.924;2022-10-31T10:00:47;14.70;99.90
33077;DHT22;38790;51.964;5.924;2022-10-31T10:03:44;14.70;99.90
33077;DHT22;38790;51.964;5.924;2022-10-31T10:06:14;14.60;99.90
33077;DHT22;38790;51.964;5.924;2022-10-31T10:08:40;14.60;99.90
33077;DHT22;38790;51.964;5.924;2022-10-31T10:19:16;14.90;99.90
33077;DHT22;38790;51.964;5.924;2022-10-31T10:21:53;15.10;99.90
33077;DHT22;38790;51.964;5.924;2022-10-31T10:24:50;15.10;99.90
33077;DHT22;38790;51.964;5.924;2022-10-31T10:30:28;15.20;99.90
33077;DHT22;38790;51.964;5.924;2022-10-31T10:33:14;15.10;99.90
33077;DHT22;38790;51.964;5.924;2022-10-31T10:36:00;15.20;99.90
33077;DHT22;38790;51.964;5.924;2022-10-31T10:38:36;15.10;99.90
33077;DHT22;38790;51.964;5.924;2022-10-31T10:41:22;15.20;99.90
33077;DHT22;38790;51.964;5.924;2022-10-31T10:43:52;15.20;99.90
33077;DHT22;38790;51.964;5.924;2022-10-31T10:49:38;15.20;99.90
33077;DHT22;38790;51.964;5.924;2022-10-31T10:52:31;15.20;99.90
33077;DHT22;38790;51.964;5.924;2022-10-31T10:58:03;15.30;99.90
33077;DHT22;38790;51.964;5.924;2022-10-31T11:00:41;15.40;99.90
33077;DHT22;38790;51.964;5.924;2022-10-31T11:03:09;15.50;99.90
33077;DHT22;38790;51.964;5.924;2022-10-31T11:08:04;15.80;99.90
33077;DHT22;38790;51.964;5.924;2022-10-31T11:10:31;15.80;99.90
33077;DHT22;38790;51.964;5.924;2022-10-31T11:15:32;15.70;99.90
33077;DHT22;38790;51.964;5.924;2022-10-31T11:17:59;15.70;99.90
33077;DHT22;38790;51.964;5.924;2022-10-31T11:20:31;15.70;99.90
33077;DHT22;38790;51.964;5.924;2022-10-31T11:23:18;15.80;99.90
33077;DHT22;38790;51.964;5.924;2022-10-31T11:25:59;15.80;99.90
33077;DHT22;38790;51.964;5.924;2022-10-31T11:28:27;15.90;99.90
33077;DHT22;38790;51.964;5.924;2022-10-31T11:30:58;15.90;99.90
33077;DHT22;38790;51.964;5.924;2022-10-31T11:33:45;15.90;99.90
33077;DHT22;38790;51.964;5.924;2022-10-31T11:36:24;15.90;99.90
33077;DHT22;38790;51.964;5.924;2022-10-31T11:38:51;15.90;99.90
33077;DHT22;38790;51.964;5.924;2022-10-31T11:43:51;16.00;99.90
33077;DHT22;38790;51.964;5.924;2022-10-31T11:49:05;16.10;99.90
33077;DHT22;38790;51.964;5.924;2022-10-31T11:51:33;16.10;99.90
33077;DHT22;38790;51.964;5.924;2022-10-31T11:54:02;16.20;99.90
33077;DHT22;38790;51.964;5.924;2022-10-31T11:56:42;16.20;99.90
33077;DHT22;38790;51.964;5.924;2022-10-31T12:01:51;16.20;99.90
33077;DHT22;38790;51.964;5.924;2022-10-31T12:04:18;16.30;99.90
33077;DHT22;38790;51.964;5.924;2022-10-31T12:06:46;16.30;99.90
33077;DHT22;38790;51.964;5.924;2022-10-31T12:09:22;16.40;99.90
33077;DHT22;38790;51.964;5.924;2022-10-31T12:15:01;16.50;99.90
33077;DHT22;38790;51.964;5.924;2022-10-31T12:17:38;16.50;99.90
33077;DHT22;38790;51.964;5.924;2022-10-31T12:25:55;16.80;99.90
33077;DHT22;38790;51.964;5.924;2022-10-31T12:37:59;16.50;99.90
33077;DHT22;38790;51.964;5.924;2022-10-31T12:50:50;16.80;99.90
33077;DHT22;38790;51.964;5.924;2022-10-31T12:56:06;16.90;99.90
33077;DHT22;38790;51.964;5.924;2022-10-31T12:58:41;16.90;99.90
33077;DHT22;38790;51.964;5.924;2022-10-31T13:04:03;17.00;99.90
33077;DHT22;38790;51.964;5.924;2022-10-31T13:06:42;17.10;99.90
33077;DHT22;38790;51.964;5.924;2022-10-31T13:09:13;17.10;99.90
33077;DHT22;38790;51.964;5.924;2022-10-31T13:11:48;17.10;99.90
33077;DHT22;38790;51.964;5.924;2022-10-31T13:14:38;17.10;99.90
33077;DHT22;38790;51.964;5.924;2022-10-31T13:17:05;17.20;99.90
33077;DHT22;38790;51.964;5.924;2022-10-31T13:19:41;17.30;99.90
33077;DHT22;38790;51.964;5.924;2022-10-31T13:22:21;17.30;99.90
33077;DHT22;38790;51.964;5.924;2022-10-31T13:30:20;17.10;99.90
33077;DHT22;38790;51.964;5.924;2022-10-31T13:36:17;16.90;99.90
33077;DHT22;38790;51.964;5.924;2022-10-31T13:44:35;16.90;99.90
33077;DHT22;38790;51.964;5.924;2022-10-31T13:47:03;16.90;99.90
33077;DHT22;38790;51.964;5.924;2022-10-31T13:54:38;16.90;99.90
33077;DHT22;38790;51.964;5.924;2022-10-31T13:57:18;16.90;99.90
33077;DHT22;38790;51.964;5.924;2022-10-31T13:59:57;16.90;99.90
33077;DHT22;38790;51.964;5.924;2022-10-31T14:02:47;16.90;99.90
33077;DHT22;38790;51.964;5.924;2022-10-31T14:05:32;16.80;99.90
33077;DHT22;38790;51.964;5.924;2022-10-31T14:08:00;16.80;99.90
33077;DHT22;38790;51.964;5.924;2022-10-31T14:10:28;16.90;99.90
33077;DHT22;38790;51.964;5.924;2022-10-31T14:13:18;16.90;99.90
33077;DHT22;38790;51.964;5.924;2022-10-31T14:16:17;16.80;99.90
33077;DHT22;38790;51.964;5.924;2022-10-31T14:18:51;16.80;99.90
33077;DHT22;38790;51.964;5.924;2022-10-31T14:21:26;16.70;99.90
33077;DHT22;38790;51.964;5.924;2022-10-31T14:23:54;16.70;99.90
33077;DHT22;38790;51.964;5.924;2022-10-31T14:28:59;16.70;99.90
33077;DHT22;38790;51.964;5.924;2022-10-31T14:34:05;16.60;99.90
33077;DHT22;38790;51.964;5.924;2022-10-31T14:36:59;16.60;99.90
33077;DHT22;38790;51.964;5.924;2022-10-31T14:46:12;16.50;99.90
33077;DHT22;38790;51.964;5.924;2022-10-31T14:50:51;16.40;99.90
33077;DHT22;38790;51.964;5.924;2022-10-31T14:55:51;16.40;99.90
33077;DHT22;38790;51.964;5.924;2022-10-31T15:00:57;16.30;99.90
33077;DHT22;38790;51.964;5.924;2022-10-31T15:03:39;16.30;99.90
33077;DHT22;38790;51.964;5.924;2022-10-31T15:06:13;16.20;99.90
33077;DHT22;38790;51.964;5.924;2022-10-31T15:08:45;16.20;99.90
33077;DHT22;38790;51.964;5.924;2022-10-31T15:11:17;16.20;99.90
33077;DHT22;38790;51.964;5.924;2022-10-31T15:13:54;16.10;99.90
33077;DHT22;38790;51.964;5.924;2022-10-31T15:16:26;16.10;99.90
33077;DHT22;38790;51.964;5.924;2022-10-31T15:18:56;16.00;99.90
33077;DHT22;38790;51.964;5.924;2022-10-31T15:21:25;16.00;99.90
33077;DHT22;38790;51.964;5.924;2022-10-31T15:23:53;15.90;99.90
33077;DHT22;38790;51.964;5.924;2022-10-31T15:26:21;15.90;99.90
33077;DHT22;38790;51.964;5.924;2022-10-31T15:29:19;15.90;99.90
33077;DHT22;38790;51.964;5.924;2022-10-31T15:31:57;15.80;99.90
33077;DHT22;38790;51.964;5.924;2022-10-31T15:34:41;15.80;99.90
33077;DHT22;38790;51.964;5.924;2022-10-31T15:37:19;15.70;99.90
33077;DHT22;38790;51.964;5.924;2022-10-31T15:39:47;15.70;99.90
33077;DHT22;38790;51.964;5.924;2022-10-31T15:44:59;15.70;99.90
33077;DHT22;38790;51.964;5.924;2022-10-31T15:47:29;15.70;99.90
33077;DHT22;38790;51.964;5.924;2022-10-31T15:49:57;15.60;99.90
33077;DHT22;38790;51.964;5.924;2022-10-31T15:52:43;15.60;99.90
33077;DHT22;38790;51.964;5.924;2022-10-31T15:57:41;15.60;99.90
33077;DHT22;38790;51.964;5.924;2022-10-31T16:02:48;15.50;99.90
33077;DHT22;38790;51.964;5.924;2022-10-31T16:05:17;15.50;99.90
33077;DHT22;38790;51.964;5.924;2022-10-31T16:07:51;15.50;99.90
33077;DHT22;38790;51.964;5.924;2022-10-31T16:10:23;15.40;99.90
33077;DHT22;38790;51.964;5.924;2022-10-31T16:12:49;15.30;99.90
33077;DHT22;38790;51.964;5.924;2022-10-31T16:15:17;15.30;99.90
33077;DHT22;38790;51.964;5.924;2022-10-31T16:17:47;15.30;99.90
33077;DHT22;38790;51.964;5.924;2022-10-31T16:20:19;15.30;99.90
33077;DHT22;38790;51.964;5.924;2022-10-31T16:22:49;15.30;99.90
33077;DHT22;38790;51.964;5.924;2022-10-31T16:27:52;15.10;99.90
33077;DHT22;38790;51.964;5.924;2022-10-31T16:32:56;15.10;99.90
33077;DHT22;38790;51.964;5.924;2022-10-31T16:35:32;15.10;99.90
33077;DHT22;38790;51.964;5.924;2022-10-31T16:37:58;15.00;99.90
33077;DHT22;38790;51.964;5.924;2022-10-31T16:40:24;15.00;99.90
33077;DHT22;38790;51.964;5.924;2022-10-31T16:42:50;15.00;99.90
33077;DHT22;38790;51.964;5.924;2022-10-31T16:45:22;15.00;99.90
33077;DHT22;38790;51.964;5.924;2022-10-31T16:47:49;15.00;99.90
33077;DHT22;38790;51.964;5.924;2022-10-31T16:50:24;15.00;99.90
33077;DHT22;38790;51.964;5.924;2022-10-31T16:52:51;14.90;99.90
33077;DHT22;38790;51.964;5.924;2022-10-31T16:55:18;14.90;99.90
33077;DHT22;38790;51.964;5.924;2022-10-31T16:57:51;14.80;99.90
33077;DHT22;38790;51.964;5.924;2022-10-31T17:00:27;14.60;99.90
33077;DHT22;38790;51.964;5.924;2022-10-31T17:02:55;14.60;99.90
33077;DHT22;38790;51.964;5.924;2022-10-31T17:05:25;14.40;99.90
33077;DHT22;38790;51.964;5.924;2022-10-31T17:07:58;14.30;99.90
33077;DHT22;38790;51.964;5.924;2022-10-31T17:10:25;14.20;99.90
33077;DHT22;38790;51.964;5.924;2022-10-31T17:12:52;14.00;99.90
33077;DHT22;38790;51.964;5.924;2022-10-31T17:15:25;13.90;99.90
33077;DHT22;38790;51.964;5.924;2022-10-31T17:17:52;13.90;99.90
33077;DHT22;38790;51.964;5.924;2022-10-31T17:20:22;13.80;99.90
33077;DHT22;38790;51.964;5.924;2022-10-31T17:22:49;13.70;99.90
33077;DHT22;38790;51.964;5.924;2022-10-31T17:25:18;13.60;99.90
33077;DHT22;38790;51.964;5.924;2022-10-31T17:27:44;13.60;99.90
33077;DHT22;38790;51.964;5.924;2022-10-31T17:30:12;13.50;99.90
33077;DHT22;38790;51.964;5.924;2022-10-31T17:32:40;13.40;99.90
33077;DHT22;38790;51.964;5.924;2022-10-31T17:35:09;13.40;99.90
33077;DHT22;38790;51.964;5.924;2022-10-31T17:37:36;13.50;99.90
33077;DHT22;38790;51.964;5.924;2022-10-31T17:40:03;13.50;99.90
33077;DHT22;38790;51.964;5.924;2022-10-31T17:42:29;13.60;99.90
33077;DHT22;38790;51.964;5.924;2022-10-31T17:44:55;13.60;99.90
33077;DHT22;38790;51.964;5.924;2022-10-31T17:47:21;13.60;99.90
33077;DHT22;38790;51.964;5.924;2022-10-31T17:49:47;13.70;99.90
33077;DHT22;38790;51.964;5.924;2022-10-31T17:52:13;13.80;99.90
33077;DHT22;38790;51.964;5.924;2022-10-31T17:54:39;13.90;99.90
33077;DHT22;38790;51.964;5.924;2022-10-31T17:57:06;14.00;99.90
33077;DHT22;38790;51.964;5.924;2022-10-31T17:59:32;14.10;99.90
33077;DHT22;38790;51.964;5.924;2022-10-31T18:01:58;14.10;99.90
33077;DHT22;38790;51.964;5.924;2022-10-31T18:04:25;14.10;99.90
33077;DHT22;38790;51.964;5.924;2022-10-31T18:06:51;14.00;99.90
33077;DHT22;38790;51.964;5.924;2022-10-31T18:09:17;13.90;99.90
33077;DHT22;38790;51.964;5.924;2022-10-31T18:11:43;13.90;99.90
33077;DHT22;38790;51.964;5.924;2022-10-31T18:14:10;13.90;99.90
33077;DHT22;38790;51.964;5.924;2022-10-31T18:16:36;13.80;99.90
33077;DHT22;38790;51.964;5.924;2022-10-31T18:19:02;13.70;99.90
33077;DHT22;38790;51.964;5.924;2022-10-31T18:21:31;13.70;99.90
33077;DHT22;38790;51.964;5.924;2022-10-31T18:23:58;13.70;99.90